sensor_id;sensor_type;location;lat;lon;timestamp;P1;durP1;ratioP1;P2;durP2;ratioP2
65825;SDS011;52586;-43.152;172.732;2023-01-10T00:00:52;5.78;;;1.58;;
65825;SDS011;52586;-43.152;172.732;2023-01-10T00:03:23;4.40;;;1.50;;
65825;SDS011;52586;-43.152;172.732;2023-01-10T00:05:54;5.30;;;1.70;;
65825;SDS011;52586;-43.152;172.732;2023-01-10T00:08:24;9.30;;;2.20;;
65825;SDS011;52586;-43.152;172.732;2023-01-10T00:10:55;6.80;;;1.83;;
65825;SDS011;52586;-43.152;172.732;2023-01-10T00:13:48;6.40;;;1.80;;
65825;SDS011;52586;-43.152;172.732;2023-01-10T00:16:20;3.45;;;1.48;;
65825;SDS011;52586;-43.152;172.732;2023-01-10T00:18:51;5.80;;;1.73;;
65825;SDS011;52586;-43.152;172.732;2023-01-10T00:21:21;3.90;;;1.83;;
65825;SDS011;52586;-43.152;172.732;2023-01-10T00:23:53;4.72;;;1.67;;
65825;SDS011;52586;-43.152;172.732;2023-01-10T00:26:26;5.75;;;1.63;;
65825;SDS011;52586;-43.152;172.732;2023-01-10T00:28:58;8.15;;;1.98;;
65825;SDS011;52586;-43.152;172.732;2023-01-10T00:31:30;5.88;;;1.80;;
65825;SDS011;52586;-43.152;172.732;2023-01-10T00:34:01;4.63;;;1.50;;
65825;SDS011;52586;-43.152;172.732;2023-01-10T00:36:33;4.25;;;1.35;;
65825;SDS011;52586;-43.152;172.732;2023-01-10T00:39:03;6.95;;;1.90;;
65825;SDS011;52586;-43.152;172.732;2023-01-10T00:41:36;4.32;;;1.38;;
65825;SDS011;52586;-43.152;172.732;2023-01-10T00:44:25;4.68;;;1.63;;
65825;SDS011;52586;-43.152;172.732;2023-01-10T00:46:55;7.85;;;2.05;;
65825;SDS011;52586;-43.152;172.732;2023-01-10T00:49:26;6.30;;;1.63;;
65825;SDS011;52586;-43.152;172.732;2023-01-10T00:51:57;6.25;;;1.63;;
65825;SDS011;52586;-43.152;172.732;2023-01-10T00:54:27;7.70;;;2.00;;
65825;SDS011;52586;-43.152;172.732;2023-01-10T00:56:58;5.72;;;1.58;;
65825;SDS011;52586;-43.152;172.732;2023-01-10T00:59:30;5.63;;;1.70;;
65825;SDS011;52586;-43.152;172.732;2023-01-10T01:02:01;6.63;;;1.70;;
65825;SDS011;52586;-43.152;172.732;2023-01-10T01:04:33;6.38;;;1.80;;
65825;SDS011;52586;-43.152;172.732;2023-01-10T01:07:04;3.03;;;1.52;;
65825;SDS011;52586;-43.152;172.732;2023-01-10T01:09:34;5.50;;;1.60;;
65825;SDS011;52586;-43.152;172.732;2023-01-10T01:12:25;3.75;;;1.38;;
65825;SDS011;52586;-43.152;172.732;2023-01-10T01:14:58;6.70;;;1.98;;
65825;SDS011;52586;-43.152;172.732;2023-01-10T01:17:28;7.80;;;2.10;;
65825;SDS011;52586;-43.152;172.732;2023-01-10T01:19:59;9.48;;;1.70;;
65825;SDS011;52586;-43.152;172.732;2023-01-10T01:22:30;4.65;;;1.60;;
65825;SDS011;52586;-43.152;172.732;2023-01-10T01:25:00;4.70;;;1.45;;
65825;SDS011;52586;-43.152;172.732;2023-01-10T01:27:31;7.15;;;1.70;;
65825;SDS011;52586;-43.152;172.732;2023-01-10T01:30:05;5.32;;;1.50;;
65825;SDS011;52586;-43.152;172.732;2023-01-10T01:32:37;5.97;;;1.40;;
65825;SDS011;52586;-43.152;172.732;2023-01-10T01:35:09;5.22;;;1.58;;
65825;SDS011;52586;-43.152;172.732;2023-01-10T01:37:42;5.22;;;1.90;;
65825;SDS011;52586;-43.152;172.732;2023-01-10T01:40:14;7.55;;;1.80;;
65825;SDS011;52586;-43.152;172.732;2023-01-10T01:42:45;4.95;;;1.73;;
65825;SDS011;52586;-43.152;172.732;2023-01-10T01:48:16;6.43;;;2.03;;
65825;SDS011;52586;-43.152;172.732;2023-01-10T01:50:58;5.72;;;1.67;;
65825;SDS011;52586;-43.152;172.732;2023-01-10T01:53:33;5.72;;;1.83;;
65825;SDS011;52586;-43.152;172.732;2023-01-10T01:56:10;5.68;;;1.90;;
65825;SDS011;52586;-43.152;172.732;2023-01-10T01:58:46;7.22;;;1.63;;
65825;SDS011;52586;-43.152;172.732;2023-01-10T02:01:21;6.35;;;1.67;;
65825;SDS011;52586;-43.152;172.732;2023-01-10T02:03:52;6.72;;;2.05;;
65825;SDS011;52586;-43.152;172.732;2023-01-10T02:06:27;4.63;;;1.60;;
65825;SDS011;52586;-43.152;172.732;2023-01-10T02:08:59;5.72;;;1.73;;
65825;SDS011;52586;-43.152;172.732;2023-01-10T02:11:35;6.45;;;2.05;;
65825;SDS011;52586;-43.152;172.732;2023-01-10T02:14:06;5.82;;;1.67;;
65825;SDS011;52586;-43.152;172.732;2023-01-10T02:16:39;5.70;;;1.30;;
65825;SDS011;52586;-43.152;172.732;2023-01-10T02:19:12;5.60;;;1.65;;
65825;SDS011;52586;-43.152;172.732;2023-01-10T02:22:06;4.45;;;1.80;;
65825;SDS011;52586;-43.152;172.732;2023-01-10T02:28:03;4.47;;;1.80;;
65825;SDS011;52586;-43.152;172.732;2023-01-10T02:31:04;5.85;;;1.88;;
65825;SDS011;52586;-43.152;172.732;2023-01-10T02:33:55;6.72;;;1.63;;
65825;SDS011;52586;-43.152;172.732;2023-01-10T02:36:34;5.75;;;1.77;;
65825;SDS011;52586;-43.152;172.732;2023-01-10T02:39:10;7.88;;;2.03;;
65825;SDS011;52586;-43.152;172.732;2023-01-10T02:41:47;8.25;;;1.98;;
65825;SDS011;52586;-43.152;172.732;2023-01-10T02:44:23;4.22;;;1.60;;
65825;SDS011;52586;-43.152;172.732;2023-01-10T02:47:02;6.75;;;2.17;;
65825;SDS011;52586;-43.152;172.732;2023-01-10T02:49:42;9.02;;;2.17;;
65825;SDS011;52586;-43.152;172.732;2023-01-10T02:52:13;8.02;;;2.00;;
65825;SDS011;52586;-43.152;172.732;2023-01-10T02:54:48;5.63;;;1.75;;
65825;SDS011;52586;-43.152;172.732;2023-01-10T02:57:28;4.80;;;1.98;;
65825;SDS011;52586;-43.152;172.732;2023-01-10T03:00:17;6.53;;;2.08;;
65825;SDS011;52586;-43.152;172.732;2023-01-10T03:03:05;4.38;;;1.52;;
65825;SDS011;52586;-43.152;172.732;2023-01-10T03:05:48;6.30;;;1.70;;
65825;SDS011;52586;-43.152;172.732;2023-01-10T03:08:25;6.57;;;2.22;;
65825;SDS011;52586;-43.152;172.732;2023-01-10T03:11:02;8.20;;;1.85;;
65825;SDS011;52586;-43.152;172.732;2023-01-10T03:13:35;5.15;;;1.92;;
65825;SDS011;52586;-43.152;172.732;2023-01-10T03:16:12;7.78;;;1.83;;
65825;SDS011;52586;-43.152;172.732;2023-01-10T03:18:46;5.32;;;1.67;;
65825;SDS011;52586;-43.152;172.732;2023-01-10T03:21:23;8.52;;;1.88;;
65825;SDS011;52586;-43.152;172.732;2023-01-10T03:23:57;4.93;;;1.98;;
65825;SDS011;52586;-43.152;172.732;2023-01-10T03:26:34;7.32;;;1.98;;
65825;SDS011;52586;-43.152;172.732;2023-01-10T03:29:12;5.53;;;1.50;;
65825;SDS011;52586;-43.152;172.732;2023-01-10T03:31:47;8.40;;;1.88;;
65825;SDS011;52586;-43.152;172.732;2023-01-10T03:34:22;4.78;;;1.65;;
65825;SDS011;52586;-43.152;172.732;2023-01-10T03:36:58;4.05;;;1.50;;
65825;SDS011;52586;-43.152;172.732;2023-01-10T03:39:37;5.63;;;1.92;;
65825;SDS011;52586;-43.152;172.732;2023-01-10T03:42:13;5.13;;;1.80;;
65825;SDS011;52586;-43.152;172.732;2023-01-10T03:44:51;5.32;;;1.85;;
65825;SDS011;52586;-43.152;172.732;2023-01-10T03:47:26;5.78;;;1.70;;
65825;SDS011;52586;-43.152;172.732;2023-01-10T03:50:02;6.40;;;1.73;;
65825;SDS011;52586;-43.152;172.732;2023-01-10T03:52:38;7.55;;;1.80;;
65825;SDS011;52586;-43.152;172.732;2023-01-10T03:55:12;7.60;;;1.90;;
65825;SDS011;52586;-43.152;172.732;2023-01-10T03:57:46;5.80;;;1.88;;
65825;SDS011;52586;-43.152;172.732;2023-01-10T04:00:17;6.30;;;1.83;;
65825;SDS011;52586;-43.152;172.732;2023-01-10T04:02:49;7.22;;;1.70;;
65825;SDS011;52586;-43.152;172.732;2023-01-10T04:05:20;4.47;;;1.48;;
65825;SDS011;52586;-43.152;172.732;2023-01-10T04:07:53;3.90;;;1.63;;
65825;SDS011;52586;-43.152;172.732;2023-01-10T04:10:24;4.50;;;1.52;;
65825;SDS011;52586;-43.152;172.732;2023-01-10T04:12:58;4.30;;;1.63;;
65825;SDS011;52586;-43.152;172.732;2023-01-10T04:15:29;5.93;;;1.70;;
65825;SDS011;52586;-43.152;172.732;2023-01-10T04:18:00;5.65;;;2.15;;
65825;SDS011;52586;-43.152;172.732;2023-01-10T04:20:31;5.90;;;1.75;;
65825;SDS011;52586;-43.152;172.732;2023-01-10T04:23:04;3.38;;;1.40;;
65825;SDS011;52586;-43.152;172.732;2023-01-10T04:25:35;6.18;;;1.73;;
65825;SDS011;52586;-43.152;172.732;2023-01-10T04:28:05;4.22;;;1.80;;
65825;SDS011;52586;-43.152;172.732;2023-01-10T04:30:36;5.88;;;1.85;;
65825;SDS011;52586;-43.152;172.732;2023-01-10T04:33:07;5.45;;;1.85;;
65825;SDS011;52586;-43.152;172.732;2023-01-10T04:35:38;5.88;;;1.85;;
65825;SDS011;52586;-43.152;172.732;2023-01-10T04:38:11;7.00;;;1.73;;
65825;SDS011;52586;-43.152;172.732;2023-01-10T04:40:42;5.63;;;1.92;;
65825;SDS011;52586;-43.152;172.732;2023-01-10T04:43:13;5.47;;;1.77;;
65825;SDS011;52586;-43.152;172.732;2023-01-10T04:45:43;6.63;;;1.70;;
65825;SDS011;52586;-43.152;172.732;2023-01-10T04:48:14;4.75;;;1.60;;
65825;SDS011;52586;-43.152;172.732;2023-01-10T04:50:49;8.10;;;1.75;;
65825;SDS011;52586;-43.152;172.732;2023-01-10T04:53:23;5.57;;;1.77;;
65825;SDS011;52586;-43.152;172.732;2023-01-10T04:55:54;4.85;;;1.92;;
65825;SDS011;52586;-43.152;172.732;2023-01-10T04:58:31;3.05;;;1.42;;
65825;SDS011;52586;-43.152;172.732;2023-01-10T05:01:06;5.85;;;1.73;;
65825;SDS011;52586;-43.152;172.732;2023-01-10T05:03:37;5.28;;;2.00;;
65825;SDS011;52586;-43.152;172.732;2023-01-10T05:06:08;5.38;;;1.90;;
65825;SDS011;52586;-43.152;172.732;2023-01-10T05:08:41;4.00;;;1.55;;
65825;SDS011;52586;-43.152;172.732;2023-01-10T05:11:12;4.45;;;1.80;;
65825;SDS011;52586;-43.152;172.732;2023-01-10T05:13:43;4.97;;;1.67;;
65825;SDS011;52586;-43.152;172.732;2023-01-10T05:16:14;3.63;;;1.38;;
65825;SDS011;52586;-43.152;172.732;2023-01-10T05:18:45;4.13;;;1.65;;
65825;SDS011;52586;-43.152;172.732;2023-01-10T05:21:16;3.50;;;1.48;;
65825;SDS011;52586;-43.152;172.732;2023-01-10T05:23:49;5.70;;;1.73;;
65825;SDS011;52586;-43.152;172.732;2023-01-10T05:26:22;4.25;;;1.42;;
65825;SDS011;52586;-43.152;172.732;2023-01-10T05:29:03;4.95;;;1.48;;
65825;SDS011;52586;-43.152;172.732;2023-01-10T05:31:36;5.85;;;1.70;;
65825;SDS011;52586;-43.152;172.732;2023-01-10T05:34:10;3.08;;;1.30;;
65825;SDS011;52586;-43.152;172.732;2023-01-10T05:36:41;6.03;;;1.75;;
65825;SDS011;52586;-43.152;172.732;2023-01-10T05:39:14;5.50;;;1.65;;
65825;SDS011;52586;-43.152;172.732;2023-01-10T05:41:44;5.47;;;1.70;;
65825;SDS011;52586;-43.152;172.732;2023-01-10T05:44:15;4.15;;;1.50;;
65825;SDS011;52586;-43.152;172.732;2023-01-10T05:50:08;4.45;;;1.52;;
65825;SDS011;52586;-43.152;172.732;2023-01-10T05:52:43;3.13;;;1.42;;
65825;SDS011;52586;-43.152;172.732;2023-01-10T05:55:20;3.92;;;1.70;;
65825;SDS011;52586;-43.152;172.732;2023-01-10T05:57:56;3.45;;;1.55;;
65825;SDS011;52586;-43.152;172.732;2023-01-10T06:03:49;3.38;;;1.27;;
65825;SDS011;52586;-43.152;172.732;2023-01-10T06:06:19;4.85;;;1.77;;
65825;SDS011;52586;-43.152;172.732;2023-01-10T06:11:50;4.57;;;1.40;;
65825;SDS011;52586;-43.152;172.732;2023-01-10T06:14:21;5.30;;;1.40;;
65825;SDS011;52586;-43.152;172.732;2023-01-10T06:16:52;5.28;;;1.85;;
65825;SDS011;52586;-43.152;172.732;2023-01-10T06:19:23;4.60;;;1.40;;
65825;SDS011;52586;-43.152;172.732;2023-01-10T06:21:53;6.78;;;2.10;;
65825;SDS011;52586;-43.152;172.732;2023-01-10T06:24:24;3.70;;;1.75;;
65825;SDS011;52586;-43.152;172.732;2023-01-10T06:26:57;4.80;;;1.55;;
65825;SDS011;52586;-43.152;172.732;2023-01-10T06:29:28;5.25;;;1.60;;
65825;SDS011;52586;-43.152;172.732;2023-01-10T06:31:59;4.22;;;1.55;;
65825;SDS011;52586;-43.152;172.732;2023-01-10T06:34:30;4.65;;;1.60;;
65825;SDS011;52586;-43.152;172.732;2023-01-10T06:37:00;4.75;;;1.50;;
65825;SDS011;52586;-43.152;172.732;2023-01-10T06:39:31;3.35;;;1.65;;
65825;SDS011;52586;-43.152;172.732;2023-01-10T06:42:04;3.72;;;1.35;;
65825;SDS011;52586;-43.152;172.732;2023-01-10T06:44:35;5.80;;;1.88;;
65825;SDS011;52586;-43.152;172.732;2023-01-10T06:47:06;3.33;;;1.63;;
65825;SDS011;52586;-43.152;172.732;2023-01-10T06:49:36;4.18;;;1.58;;
65825;SDS011;52586;-43.152;172.732;2023-01-10T06:52:07;4.22;;;1.55;;
65825;SDS011;52586;-43.152;172.732;2023-01-10T06:54:38;3.22;;;1.30;;
65825;SDS011;52586;-43.152;172.732;2023-01-10T06:57:11;4.35;;;1.83;;
65825;SDS011;52586;-43.152;172.732;2023-01-10T06:59:42;2.85;;;1.23;;
65825;SDS011;52586;-43.152;172.732;2023-01-10T07:02:12;2.55;;;1.30;;
65825;SDS011;52586;-43.152;172.732;2023-01-10T07:04:43;4.18;;;1.60;;
65825;SDS011;52586;-43.152;172.732;2023-01-10T07:07:16;4.18;;;1.45;;
65825;SDS011;52586;-43.152;172.732;2023-01-10T07:09:47;4.32;;;1.73;;
65825;SDS011;52586;-43.152;172.732;2023-01-10T07:12:19;4.70;;;1.48;;
65825;SDS011;52586;-43.152;172.732;2023-01-10T07:14:50;4.70;;;1.50;;
65825;SDS011;52586;-43.152;172.732;2023-01-10T07:17:21;4.15;;;1.30;;
65825;SDS011;52586;-43.152;172.732;2023-01-10T07:19:52;3.70;;;1.50;;
65825;SDS011;52586;-43.152;172.732;2023-01-10T07:22:22;5.38;;;1.50;;
65825;SDS011;52586;-43.152;172.732;2023-01-10T07:24:53;3.90;;;1.67;;
65825;SDS011;52586;-43.152;172.732;2023-01-10T07:27:28;2.70;;;1.17;;
65825;SDS011;52586;-43.152;172.732;2023-01-10T07:29:59;3.10;;;1.40;;
65825;SDS011;52586;-43.152;172.732;2023-01-10T07:32:30;3.50;;;1.35;;
65825;SDS011;52586;-43.152;172.732;2023-01-10T07:35:03;5.25;;;1.63;;
65825;SDS011;52586;-43.152;172.732;2023-01-10T07:37:34;3.42;;;1.40;;
65825;SDS011;52586;-43.152;172.732;2023-01-10T07:40:05;4.32;;;1.25;;
65825;SDS011;52586;-43.152;172.732;2023-01-10T07:42:39;2.72;;;1.30;;
65825;SDS011;52586;-43.152;172.732;2023-01-10T07:45:10;3.13;;;1.52;;
65825;SDS011;52586;-43.152;172.732;2023-01-10T07:47:41;3.05;;;1.27;;
65825;SDS011;52586;-43.152;172.732;2023-01-10T07:50:12;6.53;;;1.55;;
65825;SDS011;52586;-43.152;172.732;2023-01-10T07:52:43;3.80;;;1.52;;
65825;SDS011;52586;-43.152;172.732;2023-01-10T07:55:14;4.35;;;1.40;;
65825;SDS011;52586;-43.152;172.732;2023-01-10T07:57:47;3.88;;;1.48;;
65825;SDS011;52586;-43.152;172.732;2023-01-10T08:00:20;8.20;;;1.75;;
65825;SDS011;52586;-43.152;172.732;2023-01-10T08:02:52;6.28;;;1.83;;
65825;SDS011;52586;-43.152;172.732;2023-01-10T08:05:23;6.88;;;1.90;;
65825;SDS011;52586;-43.152;172.732;2023-01-10T08:07:54;7.03;;;2.15;;
65825;SDS011;52586;-43.152;172.732;2023-01-10T08:10:25;7.05;;;2.00;;
65825;SDS011;52586;-43.152;172.732;2023-01-10T08:12:58;5.80;;;1.95;;
65825;SDS011;52586;-43.152;172.732;2023-01-10T08:15:29;8.35;;;2.13;;
65825;SDS011;52586;-43.152;172.732;2023-01-10T08:18:00;6.90;;;2.00;;
65825;SDS011;52586;-43.152;172.732;2023-01-10T08:20:31;4.18;;;1.60;;
65825;SDS011;52586;-43.152;172.732;2023-01-10T08:23:02;6.07;;;1.88;;
65825;SDS011;52586;-43.152;172.732;2023-01-10T08:25:33;5.28;;;1.77;;
65825;SDS011;52586;-43.152;172.732;2023-01-10T08:28:06;5.32;;;1.80;;
65825;SDS011;52586;-43.152;172.732;2023-01-10T08:30:37;4.10;;;1.70;;
65825;SDS011;52586;-43.152;172.732;2023-01-10T08:33:08;5.97;;;1.77;;
65825;SDS011;52586;-43.152;172.732;2023-01-10T08:35:40;5.47;;;1.67;;
65825;SDS011;52586;-43.152;172.732;2023-01-10T08:38:12;5.93;;;1.80;;
65825;SDS011;52586;-43.152;172.732;2023-01-10T08:40:43;4.40;;;1.63;;
65825;SDS011;52586;-43.152;172.732;2023-01-10T08:43:15;4.25;;;1.80;;
65825;SDS011;52586;-43.152;172.732;2023-01-10T08:45:46;3.70;;;1.77;;
65825;SDS011;52586;-43.152;172.732;2023-01-10T08:48:18;4.68;;;1.50;;
65825;SDS011;52586;-43.152;172.732;2023-01-10T08:50:49;4.75;;;1.77;;
65825;SDS011;52586;-43.152;172.732;2023-01-10T08:53:20;4.85;;;1.70;;
65825;SDS011;52586;-43.152;172.732;2023-01-10T08:55:56;5.65;;;1.60;;
65825;SDS011;52586;-43.152;172.732;2023-01-10T08:58:29;5.45;;;1.70;;
65825;SDS011;52586;-43.152;172.732;2023-01-10T09:01:02;5.57;;;1.80;;
65825;SDS011;52586;-43.152;172.732;2023-01-10T09:03:33;3.58;;;1.65;;
65825;SDS011;52586;-43.152;172.732;2023-01-10T09:06:05;3.17;;;1.70;;
65825;SDS011;52586;-43.152;172.732;2023-01-10T09:08:36;4.25;;;1.60;;
65825;SDS011;52586;-43.152;172.732;2023-01-10T09:11:07;3.92;;;1.50;;
65825;SDS011;52586;-43.152;172.732;2023-01-10T09:13:40;4.25;;;1.52;;
65825;SDS011;52586;-43.152;172.732;2023-01-10T09:16:16;3.00;;;1.60;;
65825;SDS011;52586;-43.152;172.732;2023-01-10T09:18:47;3.25;;;1.30;;
65825;SDS011;52586;-43.152;172.732;2023-01-10T09:21:18;5.32;;;1.52;;
65825;SDS011;52586;-43.152;172.732;2023-01-10T09:23:49;3.30;;;1.40;;
65825;SDS011;52586;-43.152;172.732;2023-01-10T09:26:19;2.85;;;1.30;;
65825;SDS011;52586;-43.152;172.732;2023-01-10T09:28:52;3.88;;;1.50;;
65825;SDS011;52586;-43.152;172.732;2023-01-10T09:31:23;3.08;;;1.40;;
65825;SDS011;52586;-43.152;172.732;2023-01-10T09:33:54;3.28;;;1.42;;
65825;SDS011;52586;-43.152;172.732;2023-01-10T09:36:25;3.55;;;1.60;;
65825;SDS011;52586;-43.152;172.732;2023-01-10T09:38:56;2.60;;;1.23;;
65825;SDS011;52586;-43.152;172.732;2023-01-10T09:41:48;2.25;;;1.17;;
65825;SDS011;52586;-43.152;172.732;2023-01-10T09:44:35;4.72;;;1.70;;
65825;SDS011;52586;-43.152;172.732;2023-01-10T09:47:11;3.33;;;1.08;;
65825;SDS011;52586;-43.152;172.732;2023-01-10T09:49:51;3.38;;;1.33;;
65825;SDS011;52586;-43.152;172.732;2023-01-10T09:52:35;3.13;;;1.33;;
65825;SDS011;52586;-43.152;172.732;2023-01-10T09:55:15;2.95;;;1.10;;
65825;SDS011;52586;-43.152;172.732;2023-01-10T09:57:50;3.70;;;1.20;;
65825;SDS011;52586;-43.152;172.732;2023-01-10T10:00:35;3.65;;;1.50;;
65825;SDS011;52586;-43.152;172.732;2023-01-10T10:03:11;3.05;;;1.40;;
65825;SDS011;52586;-43.152;172.732;2023-01-10T10:05:50;5.72;;;1.73;;
65825;SDS011;52586;-43.152;172.732;2023-01-10T10:08:21;3.83;;;1.35;;
65825;SDS011;52586;-43.152;172.732;2023-01-10T10:10:58;2.22;;;1.27;;
65825;SDS011;52586;-43.152;172.732;2023-01-10T10:13:41;2.50;;;1.00;;
65825;SDS011;52586;-43.152;172.732;2023-01-10T10:16:24;3.20;;;1.40;;
65825;SDS011;52586;-43.152;172.732;2023-01-10T10:19:00;3.15;;;1.25;;
65825;SDS011;52586;-43.152;172.732;2023-01-10T10:21:41;3.67;;;1.50;;
65825;SDS011;52586;-43.152;172.732;2023-01-10T10:24:19;3.65;;;1.38;;
65825;SDS011;52586;-43.152;172.732;2023-01-10T10:27:04;1.75;;;1.05;;
65825;SDS011;52586;-43.152;172.732;2023-01-10T10:32:58;4.22;;;1.30;;
65825;SDS011;52586;-43.152;172.732;2023-01-10T10:35:48;2.35;;;1.10;;
65825;SDS011;52586;-43.152;172.732;2023-01-10T10:38:23;3.15;;;1.50;;
65825;SDS011;52586;-43.152;172.732;2023-01-10T10:40:57;2.28;;;1.40;;
65825;SDS011;52586;-43.152;172.732;2023-01-10T10:43:30;2.88;;;1.20;;
65825;SDS011;52586;-43.152;172.732;2023-01-10T10:46:04;2.42;;;1.27;;
65825;SDS011;52586;-43.152;172.732;2023-01-10T10:48:39;2.92;;;1.40;;
65825;SDS011;52586;-43.152;172.732;2023-01-10T10:51:17;2.15;;;1.00;;
65825;SDS011;52586;-43.152;172.732;2023-01-10T10:53:53;3.00;;;1.50;;
65825;SDS011;52586;-43.152;172.732;2023-01-10T10:56:26;2.85;;;1.17;;
65825;SDS011;52586;-43.152;172.732;2023-01-10T10:58:58;2.95;;;1.33;;
65825;SDS011;52586;-43.152;172.732;2023-01-10T11:01:29;1.98;;;1.08;;
65825;SDS011;52586;-43.152;172.732;2023-01-10T11:04:02;1.95;;;0.98;;
65825;SDS011;52586;-43.152;172.732;2023-01-10T11:06:37;1.83;;;1.02;;
65825;SDS011;52586;-43.152;172.732;2023-01-10T11:09:14;2.33;;;1.02;;
65825;SDS011;52586;-43.152;172.732;2023-01-10T11:11:48;2.95;;;1.30;;
65825;SDS011;52586;-43.152;172.732;2023-01-10T11:17:18;2.35;;;1.10;;
65825;SDS011;52586;-43.152;172.732;2023-01-10T11:19:59;1.42;;;0.85;;
65825;SDS011;52586;-43.152;172.732;2023-01-10T11:22:32;3.20;;;1.33;;
65825;SDS011;52586;-43.152;172.732;2023-01-10T11:25:12;1.85;;;0.88;;
65825;SDS011;52586;-43.152;172.732;2023-01-10T11:27:45;2.35;;;1.10;;
65825;SDS011;52586;-43.152;172.732;2023-01-10T11:30:18;1.90;;;1.10;;
65825;SDS011;52586;-43.152;172.732;2023-01-10T11:32:51;2.35;;;1.20;;
65825;SDS011;52586;-43.152;172.732;2023-01-10T11:35:25;3.20;;;1.08;;
65825;SDS011;52586;-43.152;172.732;2023-01-10T11:37:58;2.53;;;0.90;;
65825;SDS011;52586;-43.152;172.732;2023-01-10T11:40:31;2.00;;;0.95;;
65825;SDS011;52586;-43.152;172.732;2023-01-10T11:45:54;2.60;;;1.30;;
65825;SDS011;52586;-43.152;172.732;2023-01-10T11:48:30;2.17;;;1.13;;
65825;SDS011;52586;-43.152;172.732;2023-01-10T11:51:18;1.15;;;0.90;;
65825;SDS011;52586;-43.152;172.732;2023-01-10T11:53:53;2.33;;;1.08;;
65825;SDS011;52586;-43.152;172.732;2023-01-10T11:56:27;2.08;;;1.10;;
65825;SDS011;52586;-43.152;172.732;2023-01-10T11:59:06;2.15;;;1.08;;
65825;SDS011;52586;-43.152;172.732;2023-01-10T12:01:39;1.83;;;1.00;;
65825;SDS011;52586;-43.152;172.732;2023-01-10T12:04:16;0.73;;;0.70;;
65825;SDS011;52586;-43.152;172.732;2023-01-10T12:06:50;1.05;;;0.70;;
65825;SDS011;52586;-43.152;172.732;2023-01-10T12:09:34;2.30;;;1.08;;
65825;SDS011;52586;-43.152;172.732;2023-01-10T12:12:17;2.67;;;1.10;;
65825;SDS011;52586;-43.152;172.732;2023-01-10T12:14:50;1.70;;;1.10;;
65825;SDS011;52586;-43.152;172.732;2023-01-10T12:17:23;1.73;;;0.95;;
65825;SDS011;52586;-43.152;172.732;2023-01-10T12:19:55;2.08;;;1.15;;
65825;SDS011;52586;-43.152;172.732;2023-01-10T12:22:30;3.55;;;0.90;;
65825;SDS011;52586;-43.152;172.732;2023-01-10T12:25:04;2.33;;;0.98;;
65825;SDS011;52586;-43.152;172.732;2023-01-10T12:27:43;2.17;;;1.00;;
65825;SDS011;52586;-43.152;172.732;2023-01-10T12:30:15;1.70;;;1.00;;
65825;SDS011;52586;-43.152;172.732;2023-01-10T12:32:52;1.08;;;0.75;;
65825;SDS011;52586;-43.152;172.732;2023-01-10T12:35:37;1.48;;;0.95;;
65825;SDS011;52586;-43.152;172.732;2023-01-10T12:38:18;1.80;;;0.90;;
65825;SDS011;52586;-43.152;172.732;2023-01-10T12:41:06;3.03;;;1.17;;
65825;SDS011;52586;-43.152;172.732;2023-01-10T12:43:58;1.20;;;0.90;;
65825;SDS011;52586;-43.152;172.732;2023-01-10T12:46:41;1.73;;;0.80;;
65825;SDS011;52586;-43.152;172.732;2023-01-10T12:49:16;2.70;;;1.20;;
65825;SDS011;52586;-43.152;172.732;2023-01-10T12:51:52;1.10;;;0.85;;
65825;SDS011;52586;-43.152;172.732;2023-01-10T12:54:28;1.83;;;1.05;;
65825;SDS011;52586;-43.152;172.732;2023-01-10T12:57:00;0.98;;;0.82;;
65825;SDS011;52586;-43.152;172.732;2023-01-10T12:59:35;2.40;;;1.10;;
65825;SDS011;52586;-43.152;172.732;2023-01-10T13:02:11;2.15;;;0.93;;
65825;SDS011;52586;-43.152;172.732;2023-01-10T13:04:47;1.05;;;0.80;;
65825;SDS011;52586;-43.152;172.732;2023-01-10T13:07:19;2.55;;;1.05;;
65825;SDS011;52586;-43.152;172.732;2023-01-10T13:09:54;1.40;;;0.90;;
65825;SDS011;52586;-43.152;172.732;2023-01-10T13:12:26;1.60;;;0.80;;
65825;SDS011;52586;-43.152;172.732;2023-01-10T13:15:02;2.03;;;1.10;;
65825;SDS011;52586;-43.152;172.732;2023-01-10T13:17:40;2.33;;;0.85;;
65825;SDS011;52586;-43.152;172.732;2023-01-10T13:23:22;2.03;;;1.00;;
65825;SDS011;52586;-43.152;172.732;2023-01-10T13:26:01;1.17;;;0.65;;
65825;SDS011;52586;-43.152;172.732;2023-01-10T13:28:34;2.47;;;1.00;;
65825;SDS011;52586;-43.152;172.732;2023-01-10T13:31:20;1.58;;;0.75;;
65825;SDS011;52586;-43.152;172.732;2023-01-10T13:33:53;1.55;;;0.93;;
65825;SDS011;52586;-43.152;172.732;2023-01-10T13:36:27;1.70;;;0.77;;
65825;SDS011;52586;-43.152;172.732;2023-01-10T13:39:03;1.20;;;0.75;;
65825;SDS011;52586;-43.152;172.732;2023-01-10T13:45:19;1.27;;;0.70;;
65825;SDS011;52586;-43.152;172.732;2023-01-10T13:48:01;1.58;;;0.80;;
65825;SDS011;52586;-43.152;172.732;2023-01-10T13:56:52;1.90;;;0.90;;
65825;SDS011;52586;-43.152;172.732;2023-01-10T14:02:43;1.25;;;0.70;;
65825;SDS011;52586;-43.152;172.732;2023-01-10T14:05:15;1.48;;;0.70;;
65825;SDS011;52586;-43.152;172.732;2023-01-10T14:07:47;1.05;;;0.70;;
65825;SDS011;52586;-43.152;172.732;2023-01-10T14:10:21;1.73;;;0.80;;
65825;SDS011;52586;-43.152;172.732;2023-01-10T14:12:53;1.60;;;0.80;;
65825;SDS011;52586;-43.152;172.732;2023-01-10T14:15:36;2.00;;;0.80;;
65825;SDS011;52586;-43.152;172.732;2023-01-10T14:18:16;1.23;;;0.90;;
65825;SDS011;52586;-43.152;172.732;2023-01-10T14:20:54;2.28;;;0.98;;
65825;SDS011;52586;-43.152;172.732;2023-01-10T14:23:29;0.95;;;0.60;;
65825;SDS011;52586;-43.152;172.732;2023-01-10T14:26:03;0.82;;;0.60;;
65825;SDS011;52586;-43.152;172.732;2023-01-10T14:28:35;2.33;;;0.90;;
65825;SDS011;52586;-43.152;172.732;2023-01-10T14:31:09;1.98;;;0.73;;
65825;SDS011;52586;-43.152;172.732;2023-01-10T14:33:48;1.02;;;0.70;;
65825;SDS011;52586;-43.152;172.732;2023-01-10T14:36:19;0.95;;;0.75;;
65825;SDS011;52586;-43.152;172.732;2023-01-10T14:38:55;1.08;;;0.80;;
65825;SDS011;52586;-43.152;172.732;2023-01-10T14:41:30;1.83;;;0.80;;
65825;SDS011;52586;-43.152;172.732;2023-01-10T14:44:06;1.08;;;0.60;;
65825;SDS011;52586;-43.152;172.732;2023-01-10T14:46:43;1.25;;;0.70;;
65825;SDS011;52586;-43.152;172.732;2023-01-10T14:49:21;1.35;;;0.70;;
65825;SDS011;52586;-43.152;172.732;2023-01-10T14:51:54;1.23;;;0.70;;
65825;SDS011;52586;-43.152;172.732;2023-01-10T14:54:39;1.23;;;0.75;;
65825;SDS011;52586;-43.152;172.732;2023-01-10T14:57:16;2.05;;;0.82;;
65825;SDS011;52586;-43.152;172.732;2023-01-10T14:59:49;1.05;;;0.70;;
65825;SDS011;52586;-43.152;172.732;2023-01-10T15:02:29;1.05;;;0.70;;
65825;SDS011;52586;-43.152;172.732;2023-01-10T15:05:05;1.00;;;0.65;;
65825;SDS011;52586;-43.152;172.732;2023-01-10T15:07:40;1.42;;;0.80;;
65825;SDS011;52586;-43.152;172.732;2023-01-10T15:10:16;1.85;;;0.70;;
65825;SDS011;52586;-43.152;172.732;2023-01-10T15:12:52;1.50;;;0.70;;
65825;SDS011;52586;-43.152;172.732;2023-01-10T15:15:28;0.90;;;0.60;;
65825;SDS011;52586;-43.152;172.732;2023-01-10T15:18:01;0.98;;;0.70;;
65825;SDS011;52586;-43.152;172.732;2023-01-10T15:20:37;1.35;;;0.77;;
65825;SDS011;52586;-43.152;172.732;2023-01-10T15:23:11;1.77;;;0.77;;
65825;SDS011;52586;-43.152;172.732;2023-01-10T15:25:43;1.27;;;0.85;;
65825;SDS011;52586;-43.152;172.732;2023-01-10T15:28:21;1.52;;;0.80;;
65825;SDS011;52586;-43.152;172.732;2023-01-10T15:30:53;1.60;;;0.77;;